Huvudsida
METAR-TAF:

METAR-TAF

Flygplatser :

Enfidha-Hammamets internationella flygplats

Hammamet, Tunisien

latitud: 36-04-34N, longitud: 10-26-19E, höjd: 6 m

Aktuellt väderrapport

Denna rapport gjordes för 10 minuter sedan, klockan 21:30 UTC
Vind 3 kt från syd/sydost, varierande mellan ost och syd/sydväst
Temperatur 12°C
Fuktighet 67%
Tryck 1022 hPa
Sikt 10 km eller mer
Inga moln under 1 500 m eller inga cumulonimbus

METAR: DTNH 262130Z 16003KT 100V200 CAVOK 12/06 Q1022 NOSIG

Tid: 22:40 (21:40 UTC)

Väderprognos

Denna rapport gjordes för 4 timmar och 40 minuter sedan, klockan 17:00 UTC
Prognos gäller från 26 kl. 18 UTC till 27 kl. 18 UTC
Vind 6 kt från nordväst
Sikt 10 km eller mer
Inga moln under 1 500 m eller inga cumulonimbus
Sannolikhet 30% :
Temporärt
mellan VR och B0 UTC
Sikt: 4000 m
fuktdis

TAF: DTNH 261700Z 2618/2718 32006KT CAVOK PROB30 TEMPO VRB02KT 2704/2708 4000 BR

Aktuella väderrapporter och prognoser från 4000 flygplatser (METAR- och TAF-rapporter).

De tillgängliga stationerna syns som gula och röda prickar på kartan.

För musen över prickarna för att se namnen på stationerna.

Klicka sedan för att få väderrapporter och prognoser.

För att ändra kartan: Klicka på de gröna knapparna med ett svart kors på för att zooma in; den gröna knappen med ett streck på för att zooma ut; eller på de gröna pilarna för angränsande kartor.


METAR-TAF: